6A4 weather

Johnson County Airport
Mountain City, Tennessee, United States

Public forecast

Using degrees Fahrenheit for public forecast. Weather courtesy of forecast.io.

Closest aviation weather report (METAR) to Johnson County Airport

Closest report is Elizabethton Municipal Airport, 17.1 nm (31.6 km) W. Retrieved 2020/01/24 04:35 UTC (0 seconds ago):

K0A9 240435Z AUTO 08011G17KT 10SM FEW045 FEW080 SCT120 09/M06 A3011 RMK AO2

Closest aviation forecast (TAF) to Johnson County Airport

Closest forecast is Tri-Cities Regional TN/VA Airport, 28.3 nm (52.5 km) W. Retrieved 2020-01-24 00:22 UTC (4 hours ago):

TAF KTRI 232320Z 2400/2424 11004KT P6SM BKN070 TEMPO 2400/2403 P6SM -SHRA OVC070 FM240700 11006KT P6SM VCSH OVC050 PROB30 2409/2413 4SM -RA OVC025 FM241300 11006KT 5SM BR OVC050 PROB30 2413/2414 2SM -RA BR OVC015 FM241800 12007KT 6SM -RA BKN025 PROB30 2418/2423 4SM -RA BKN015